Time;durP1;ratioP1;P1;durP2;ratioP2;P2;SDS_P1;SDS_P2;PMS_P1;PMS_P2;Temp;Humidity;BMP_temperature;BMP_pressure;BME280_temperature;BME280_humidity;BME280_pressure;Samples;Min_cycle;Max_cycle;Signal;HPM_P1;HPM_P2
2021/11/13 00:02:13;;;;;;;46.72;23.60;;;;;;;15.33;100.00;100784.13;5054143;28;20393;-52
2021/11/13 00:04:39;;;;;;;55.20;24.33;;;;;;;15.33;100.00;100788.69;5052867;28;20474;-53
2021/11/13 00:07:04;;;;;;;58.20;26.17;;;;;;;15.39;100.00;100786.94;5054763;28;20367;-49
2021/11/13 00:09:30;;;;;;;45.13;23.17;;;;;;;15.24;100.00;100765.81;5054414;28;20032;-50
2021/11/13 00:11:57;;;;;;;62.28;28.02;;;;;;;14.99;100.00;100775.69;5053877;28;20293;-51
2021/11/13 00:14:22;;;;;;;54.03;26.45;;;;;;;15.44;100.00;100795.16;5053041;28;20059;-53
2021/11/13 00:16:48;;;;;;;51.60;26.67;;;;;;;15.48;100.00;100778.31;5054141;28;20105;-51
2021/11/13 00:19:14;;;;;;;62.22;26.70;;;;;;;15.28;100.00;100780.47;5054442;28;20049;-52
2021/11/13 00:21:40;;;;;;;;;;;;;;;15.27;100.00;100779.66;5054461;28;20056;-49
2021/11/13 00:24:06;;;;;;;52.67;25.47;;;;;;;15.67;100.00;100772.88;5053830;28;20237;-50
2021/11/13 00:26:32;;;;;;;65.38;27.40;;;;;;;15.55;100.00;100764.75;5086263;28;20033;-51
2021/11/13 00:28:58;;;;;;;47.60;24.33;;;;;;;15.48;100.00;100775.63;5054162;28;20393;-50
2021/11/13 00:31:24;;;;;;;55.23;25.93;;;;;;;15.47;100.00;100767.78;5069259;28;20060;-49
2021/11/13 00:33:49;;;;;;;53.20;25.85;;;;;;;15.61;100.00;100766.50;5036463;28;20121;-53
2021/11/13 00:36:15;;;;;;;52.67;24.53;;;;;;;15.52;100.00;100767.06;5053738;28;20126;-55
2021/11/13 00:38:40;;;;;;;56.17;27.17;;;;;;;15.50;100.00;100767.31;5052269;28;20056;-52
2021/11/13 00:41:06;;;;;;;49.75;25.00;;;;;;;15.62;100.00;100751.97;5053453;28;20040;-52
2021/11/13 00:43:32;;;;;;;53.35;23.15;;;;;;;15.59;100.00;100748.94;5052597;28;20136;-49
2021/11/13 00:45:57;;;;;;;50.28;24.05;;;;;;;15.74;100.00;100754.69;5052582;28;20495;-53
2021/11/13 00:48:23;;;;;;;48.00;24.20;;;;;;;15.76;100.00;100749.91;5052565;28;20041;-50
2021/11/13 00:50:49;;;;;;;48.10;23.27;;;;;;;15.77;100.00;100750.72;5053859;28;20045;-51
2021/11/13 00:53:16;;;;;;;56.20;25.23;;;;;;;15.78;100.00;100738.88;5052153;28;20338;-52
2021/11/13 00:55:42;;;;;;;;;;;;;;;15.94;100.00;100739.28;5070612;28;20289;-50
2021/11/13 00:58:07;;;;;;;48.73;21.87;;;;;;;15.92;100.00;100747.59;5053418;28;19916;-53
2021/11/13 01:00:33;;;;;;;56.23;27.30;;;;;;;15.84;100.00;100740.66;5053209;28;20144;-55
2021/11/13 01:02:59;;;;;;;53.17;24.08;;;;;;;16.00;100.00;100749.13;5051927;28;20277;-51
2021/11/13 01:05:24;;;;;;;51.47;25.30;;;;;;;15.94;100.00;100737.41;5053119;28;20090;-52
2021/11/13 01:07:49;;;;;;;45.17;22.83;;;;;;;16.23;100.00;100717.81;5053635;28;20033;-51
2021/11/13 01:10:18;;;;;;;47.03;21.97;;;;;;;16.01;100.00;100729.19;5053067;28;20098;-53
2021/11/13 01:12:45;;;;;;;46.87;21.63;;;;;;;16.40;100.00;100726.00;5053503;28;20446;-53
2021/11/13 01:15:13;;;;;;;49.47;23.67;;;;;;;16.11;100.00;100718.63;5053520;28;20722;-56
2021/11/13 01:17:39;;;;;;;47.93;23.30;;;;;;;16.25;100.00;100713.81;5052845;28;20516;-49
2021/11/13 01:20:10;;;;;;;47.42;21.95;;;;;;;15.92;100.00;100709.84;5053482;28;20457;-52
2021/11/13 01:22:38;;;;;;;45.23;20.93;;;;;;;15.90;100.00;100728.94;5053586;28;20048;-53
2021/11/13 01:25:04;;;;;;;45.40;22.03;;;;;;;15.97;100.00;100703.75;5051841;28;20779;-53
2021/11/13 01:27:30;;;;;;;45.30;21.40;;;;;;;16.01;100.00;100713.03;5052259;28;20764;-50
2021/11/13 01:29:56;;;;;;;46.03;22.02;;;;;;;15.76;100.00;100725.63;5053247;28;20270;-54
2021/11/13 01:32:25;;;;;;;42.60;23.07;;;;;;;15.78;100.00;100728.91;5052564;28;20048;-58
2021/11/13 01:34:50;;;;;;;39.55;18.08;;;;;;;15.74;100.00;100726.94;5069916;28;20301;-59
2021/11/13 01:37:16;;;;;;;43.50;21.70;;;;;;;15.79;100.00;100727.06;5052310;28;20505;-58
2021/11/13 01:39:42;;;;;;;49.93;22.90;;;;;;;15.83;100.00;100712.03;5053666;28;20123;-58
2021/11/13 01:42:08;;;;;;;37.20;19.27;;;;;;;15.91;100.00;100714.44;5052026;28;20049;-59
2021/11/13 01:44:34;;;;;;;43.38;23.13;;;;;;;15.81;100.00;100714.16;5053556;28;20362;-59
2021/11/13 01:46:59;;;;;;;41.22;22.63;;;;;;;16.02;100.00;100701.19;5054146;28;20384;-58
2021/11/13 01:49:25;;;;;;;43.63;23.25;;;;;;;15.75;100.00;100709.69;5053545;28;20037;-59
2021/11/13 01:51:52;;;;;;;52.85;26.25;;;;;;;15.91;100.00;100692.88;5053043;28;20121;-58
2021/11/13 01:54:19;;;;;;;46.57;23.73;;;;;;;16.09;100.00;100691.06;5052416;28;20144;-60
2021/11/13 01:56:47;;;;;;;53.77;27.93;;;;;;;15.84;100.00;100692.09;5053101;28;20335;-60
2021/11/13 01:59:13;;;;;;;48.80;25.77;;;;;;;16.17;100.00;100690.72;5053471;28;20364;-59
2021/11/13 02:01:39;;;;;;;54.35;25.73;;;;;;;16.02;100.00;100706.56;5051917;28;20367;-59
2021/11/13 02:04:05;;;;;;;50.38;25.33;;;;;;;15.95;100.00;100697.78;5052993;28;20128;-58
2021/11/13 02:06:32;;;;;;;49.37;24.33;;;;;;;16.43;100.00;100693.97;5053355;28;20041;-59
2021/11/13 02:08:58;;;;;;;54.50;26.02;;;;;;;16.02;100.00;100696.59;5052775;28;20278;-59
2021/11/13 02:11:25;;;;;;;55.78;26.50;;;;;;;16.34;100.00;100689.97;5056136;28;20446;-59
2021/11/13 02:13:59;;;;;;;51.17;26.70;;;;;;;16.14;100.00;100685.78;5057618;28;20041;-57
2021/11/13 02:16:26;;;;;;;51.93;26.93;;;;;;;16.17;100.00;100693.44;5057134;28;20289;-59
2021/11/13 02:18:52;;;;;;;53.67;24.83;;;;;;;15.90;100.00;100685.81;5056804;28;20274;-59
2021/11/13 02:21:18;;;;;;;60.65;26.73;;;;;;;16.34;100.00;100673.78;5057531;28;20043;-61
2021/11/13 02:23:44;;;;;;;55.73;25.80;;;;;;;16.12;100.00;100690.59;5056971;28;20124;-59
2021/11/13 02:26:11;;;;;;;52.45;24.92;;;;;;;15.91;100.00;100687.47;5056693;28;20360;-59
2021/11/13 02:28:37;;;;;;;;;;;;;;;15.68;100.00;100688.25;5057843;28;20187;-59
2021/11/13 02:31:06;;;;;;;50.27;25.43;;;;;;;16.07;100.00;100674.31;5056932;28;20354;-59
2021/11/13 02:33:32;;;;;;;61.13;28.60;;;;;;;16.12;100.00;100682.50;5055795;28;20068;-59
2021/11/13 02:35:58;;;;;;;61.70;29.35;;;;;;;16.29;100.00;100665.59;5056863;28;20049;-57
2021/11/13 02:38:29;;;;;;;59.25;27.63;;;;;;;16.83;100.00;100681.50;5056734;28;20138;-59
2021/11/13 02:40:58;;;;;;;53.20;26.17;;;;;;;16.52;100.00;100663.91;5040030;28;20064;-59
2021/11/13 02:43:27;;;;;;;57.57;24.30;;;;;;;16.25;100.00;100675.22;5056847;28;20302;-62
2021/11/13 02:45:56;;;;;;;54.53;24.63;;;;;;;16.03;100.00;100678.53;5056664;28;20377;-58
2021/11/13 02:48:22;;;;;;;48.47;24.97;;;;;;;15.99;100.00;100675.47;5055693;28;20274;-58
2021/11/13 02:50:48;;;;;;;60.07;26.37;;;;;;;16.53;100.00;100673.63;5055672;28;20285;-58
2021/11/13 02:53:18;;;;;;;51.88;23.55;;;;;;;16.03;100.00;100678.53;5056248;28;20033;-59
2021/11/13 02:55:43;;;;;;;58.97;29.13;;;;;;;15.81;100.00;100672.91;5055763;28;20067;-58
2021/11/13 02:58:09;;;;;;;60.17;30.53;;;;;;;16.05;100.00;100676.44;5055623;28;20702;-58
2021/11/13 03:00:36;;;;;;;72.05;34.33;;;;;;;16.24;100.00;100679.00;5054774;28;20396;-58
2021/11/13 03:03:01;;;;;;;;;;;;;;;15.96;100.00;100667.06;5055188;28;20114;-58
2021/11/13 03:05:31;;;;;;;70.13;31.80;;;;;;;16.12;100.00;100676.31;5055466;28;19948;-58
2021/11/13 03:08:00;;;;;;;74.23;35.33;;;;;;;16.05;100.00;100665.63;5055944;28;20099;-58
2021/11/13 03:10:31;;;;;;;81.27;37.63;;;;;;;16.12;100.00;100677.13;5054256;28;20377;-59
2021/11/13 03:12:57;;;;;;;67.97;32.70;;;;;;;16.20;100.00;100670.53;5054182;28;20357;-59
2021/11/13 03:15:23;;;;;;;68.82;33.45;;;;;;;16.33;100.00;100666.75;5056223;28;20694;-59
2021/11/13 03:17:51;;;;;;;78.87;38.00;;;;;;;16.26;100.00;100669.59;5055552;28;20072;-57
2021/11/13 03:20:20;;;;;;;89.73;38.80;;;;;;;16.34;100.00;100663.00;5055414;28;20262;-58
2021/11/13 03:22:47;;;;;;;85.90;39.50;;;;;;;16.41;100.00;100669.09;5053640;28;20373;-58
2021/11/13 03:25:19;;;;;;;76.83;36.17;;;;;;;16.27;100.00;100668.56;5055497;28;20359;-58
2021/11/13 03:27:51;;;;;;;71.53;31.57;;;;;;;16.53;100.00;100665.53;5055411;28;20389;-60
2021/11/13 03:30:18;;;;;;;78.10;39.27;;;;;;;16.67;100.00;100668.78;5054196;28;20835;-58
2021/11/13 03:32:44;;;;;;;84.90;35.47;;;;;;;16.68;100.00;100665.00;5054031;28;20266;-59
2021/11/13 03:35:16;;;;;;;70.07;33.85;;;;;;;16.68;100.00;100673.13;5055292;28;20281;-58
2021/11/13 03:37:43;;;;;;;80.53;36.70;;;;;;;16.40;100.00;100678.25;5053529;28;20057;-59
2021/11/13 03:40:10;;;;;;;76.35;37.70;;;;;;;16.41;100.00;100661.00;5054776;28;20365;-59
2021/11/13 03:42:37;;;;;;;78.73;39.97;;;;;;;16.68;100.00;100665.00;5054265;28;20330;-57
2021/11/13 03:45:03;;;;;;;82.35;37.80;;;;;;;16.65;100.00;100663.63;5054923;28;20364;-54
2021/11/13 03:47:29;;;;;;;84.97;39.43;;;;;;;16.76;100.00;100665.44;5054620;28;20552;-58
2021/11/13 03:49:54;;;;;;;78.03;37.43;;;;;;;16.92;100.00;100663.03;5054824;28;20302;-58
2021/11/13 03:52:21;;;;;;;82.27;36.10;;;;;;;16.81;100.00;100661.19;5055012;28;20641;-59
2021/11/13 03:54:46;;;;;;;65.72;32.72;;;;;;;16.85;100.00;100673.19;5054704;28;20033;-59
2021/11/13 03:57:12;;;;;;;66.93;32.00;;;;;;;17.05;100.00;100656.56;5053402;28;20045;-59
2021/11/13 03:59:37;;;;;;;72.15;33.55;;;;;;;17.14;100.00;100655.06;5053132;28;20151;-58
2021/11/13 04:02:03;;;;;;;58.97;26.53;;;;;;;17.22;100.00;100661.97;5054448;28;20389;-57
2021/11/13 04:04:28;;;;;;;59.10;27.73;;;;;;;17.08;100.00;100655.25;5054347;28;20397;-59
2021/11/13 04:06:54;;;;;;;54.90;26.87;;;;;;;16.88;100.00;100660.00;5054496;28;20098;-58
2021/11/13 04:09:19;;;;;;;50.00;26.57;;;;;;;17.06;100.00;100661.69;5054406;28;20750;-59
2021/11/13 04:11:46;;;;;;;61.40;27.40;;;;;;;17.15;100.00;100670.22;5054569;28;20298;-58
2021/11/13 04:14:11;;;;;;;51.03;24.63;;;;;;;17.39;100.00;100663.88;5054618;28;20047;-60
2021/11/13 04:16:37;;;;;;;49.90;25.67;;;;;;;16.95;100.00;100676.06;5036960;28;20033;-58
2021/11/13 04:19:03;;;;;;;52.30;24.77;;;;;;;16.86;100.00;100666.72;5053747;28;20495;-57
2021/11/13 04:21:28;;;;;;;95.80;27.58;;;;;;;17.39;100.00;100677.38;5052861;28;20480;-59
2021/11/13 04:23:54;;;;;;;52.57;24.30;;;;;;;17.86;100.00;100668.91;5054220;28;20120;-59
2021/11/13 04:26:19;;;;;;;54.78;25.65;;;;;;;17.75;100.00;100676.06;5054179;28;20033;-59
2021/11/13 04:28:47;;;;;;;51.13;25.07;;;;;;;17.33;100.00;100684.56;5053934;28;20041;-58
2021/11/13 04:31:13;;;;;;;49.03;22.40;;;;;;;17.13;100.00;100679.66;5054114;28;20296;-57
2021/11/13 04:33:39;;;;;;;;;;;;;;;17.13;100.00;100674.25;5054346;28;20292;-58
2021/11/13 04:38:33;;;;;;;54.27;26.53;;;;;;;16.85;100.00;100678.59;5054030;28;20056;-57
2021/11/13 04:41:01;;;;;;;49.88;25.00;;;;;;;17.02;100.00;100684.84;5053793;28;20286;-54
2021/11/13 04:43:26;;;;;;;53.43;26.20;;;;;;;17.10;100.00;100682.84;5054367;28;20033;-56
2021/11/13 04:45:52;;;;;;;55.33;26.10;;;;;;;17.28;100.00;100688.00;5052624;28;20681;-56
2021/11/13 04:48:18;;;;;;;56.15;25.85;;;;;;;17.33;100.00;100689.97;5053259;28;20288;-55
2021/11/13 04:50:43;;;;;;;64.97;26.13;;;;;;;17.39;100.00;100689.00;5036054;28;20094;-52
2021/11/13 04:53:09;;;;;;;56.42;28.92;;;;;;;17.21;100.00;100692.75;5053943;28;20083;-56
2021/11/13 04:55:35;;;;;;;;;;;;;;;16.90;100.00;100694.88;5054169;28;20445;-55
2021/11/13 04:58:01;;;;;;;75.40;32.30;;;;;;;16.98;100.00;100693.69;5052462;28;19913;-55
2021/11/13 05:00:28;;;;;;;71.00;31.27;;;;;;;17.44;100.00;100691.81;5053496;28;20479;-57
2021/11/13 05:02:54;;;;;;;67.17;28.23;;;;;;;17.55;100.00;100702.78;5053603;28;20044;-55
2021/11/13 05:05:22;;;;;;;66.72;27.58;;;;;;;17.50;100.00;100695.41;5053552;28;20274;-55
2021/11/13 05:07:47;;;;;;;85.27;38.40;;;;;;;17.12;100.00;100688.81;5053560;28;20491;-57
2021/11/13 05:10:14;;;;;;;90.22;39.55;;;;;;;17.11;100.00;100698.00;5053883;28;20298;-56
2021/11/13 05:12:41;;;;;;;82.60;34.60;;;;;;;18.75;100.00;100714.19;5053126;28;20037;-54
2021/11/13 05:15:07;;;;;;;78.47;30.98;;;;;;;18.17;100.00;100718.06;5053945;28;20645;-55
2021/11/13 05:17:33;;;;;;;;;;;;;;;17.71;100.00;100731.72;5052425;28;20025;-54
2021/11/13 05:20:07;;;;;;;2.10;1.97;;;;;;;17.44;100.00;100728.81;5052092;28;19920;-55
2021/11/13 05:22:33;;;;;;;92.10;27.40;;;;;;;17.78;100.00;100736.97;5052992;28;20341;-52
2021/11/13 05:25:01;;;;;;;35.60;14.07;;;;;;;19.35;100.00;100734.06;5052097;28;20265;-56
2021/11/13 05:27:28;;;;;;;56.97;24.73;;;;;;;18.51;100.00;100728.00;5052949;28;20273;-55
2021/11/13 05:29:53;;;;;;;73.70;27.80;;;;;;;19.82;100.00;100729.03;5035382;28;20274;-55
2021/11/13 05:32:19;;;;;;;69.57;28.07;;;;;;;18.23;100.00;100720.88;5051765;28;20072;-55
2021/11/13 05:34:44;;;;;;;43.87;15.80;;;;;;;19.03;100.00;100721.31;5052826;28;20280;-55
2021/11/13 05:37:12;;;;;;;80.33;28.37;;;;;;;18.92;100.00;100723.06;5053433;28;20259;-55
2021/11/13 05:39:38;;;;;;;72.60;27.92;;;;;;;18.88;100.00;100726.53;5053450;28;20292;-55
2021/11/13 05:42:05;;;;;;;68.87;30.30;;;;;;;18.70;100.00;100728.50;5053345;28;20068;-53
2021/11/13 05:44:35;;;;;;;72.60;31.07;;;;;;;18.42;100.00;100726.81;5051591;28;20680;-55
2021/11/13 05:47:02;;;;;;;76.90;32.80;;;;;;;18.84;100.00;100718.09;5051728;28;20270;-53
2021/11/13 05:49:28;;;;;;;84.87;34.20;;;;;;;19.21;100.00;100730.16;5052584;28;20701;-56
2021/11/13 05:51:53;;;;;;;74.25;33.75;;;;;;;19.22;100.00;100729.09;5051344;28;20375;-53
2021/11/13 05:54:19;;;;;;;80.00;32.63;;;;;;;19.13;100.00;100726.00;5034923;28;20037;-54
2021/11/13 05:56:45;;;;;;;65.90;27.27;;;;;;;18.30;100.00;100726.91;5052779;28;20390;-55
2021/11/13 05:59:12;;;;;;;58.43;28.73;;;;;;;18.84;100.00;100734.34;5052693;28;20041;-55
2021/11/13 06:01:40;;;;;;;50.30;25.53;;;;;;;18.57;100.00;100729.72;5053452;28;20274;-55
2021/11/13 06:04:06;;;;;;;57.38;27.45;;;;;;;18.56;100.00;100727.25;5052979;28;20274;-56
2021/11/13 06:06:32;;;;;;;59.80;26.73;;;;;;;18.73;100.00;100722.59;5051210;28;20048;-56
2021/11/13 06:08:57;;;;;;;58.42;26.67;;;;;;;18.58;100.00;100725.94;5052607;28;20410;-55
2021/11/13 06:11:22;;;;;;;64.63;28.37;;;;;;;18.86;100.00;100734.09;5051136;28;20045;-54
2021/11/13 06:13:48;;;;;;;54.80;24.50;;;;;;;18.67;100.00;100734.41;5052486;28;20045;-56
2021/11/13 06:16:13;;;;;;;56.47;25.73;;;;;;;18.35;100.00;100732.38;5052633;28;20037;-54
2021/11/13 06:18:39;;;;;;;56.00;25.55;;;;;;;18.25;100.00;100737.69;5052869;28;20274;-55
2021/11/13 06:21:06;;;;;;;58.60;27.40;;;;;;;18.65;100.00;100739.25;5051580;28;20053;-51
2021/11/13 06:23:33;;;;;;;56.00;25.27;;;;;;;18.85;100.00;100738.69;5034922;28;20266;-53
2021/11/13 06:25:59;;;;;;;56.17;25.10;;;;;;;18.54;100.00;100741.03;5051615;28;20286;-51
2021/11/13 06:28:25;;;;;;;54.58;24.70;;;;;;;18.27;100.00;100739.06;5051330;28;20618;-52
2021/11/13 06:30:50;;;;;;;55.88;25.17;;;;;;;18.40;100.00;100748.69;5052443;28;20087;-54
2021/11/13 06:33:16;;;;;;;47.60;23.17;;;;;;;18.61;100.00;100754.38;5050868;28;20052;-52
2021/11/13 06:35:42;;;;;;;49.72;25.30;;;;;;;18.69;100.00;100763.97;5052184;28;20037;-53
2021/11/13 06:38:08;;;;;;;46.00;23.08;;;;;;;18.27;100.00;100757.19;5050873;28;20045;-55
2021/11/13 06:40:34;;;;;;;71.28;24.33;;;;;;;18.54;100.00;100757.28;5052716;28;20033;-53
2021/11/13 06:43:00;;;;;;;51.25;23.80;;;;;;;18.64;100.00;100759.28;5052057;28;20067;-53
2021/11/13 06:45:31;;;;;;;52.30;24.37;;;;;;;18.11;100.00;100766.97;5052400;28;20516;-53
2021/11/13 06:47:57;;;;;;;48.75;24.40;;;;;;;18.28;100.00;100759.63;5052064;28;20301;-55
2021/11/13 06:50:23;;;;;;;56.90;26.50;;;;;;;18.23;100.00;100766.88;5052120;28;20065;-55
2021/11/13 06:52:48;;;;;;;53.28;24.58;;;;;;;18.31;100.00;100761.03;5050955;28;20511;-55
2021/11/13 06:55:15;;;;;;;54.30;24.97;;;;;;;18.02;100.00;100767.38;5052324;28;20036;-53
2021/11/13 06:57:41;;;;;;;57.20;23.58;;;;;;;18.17;100.00;100769.50;5054535;28;20347;-54
2021/11/13 07:00:13;;;;;;;58.80;25.83;;;;;;;18.39;100.00;100770.63;5055724;28;20495;-51
2021/11/13 07:02:39;;;;;;;51.17;24.20;;;;;;;18.38;100.00;100769.78;5088583;28;20578;-54
2021/11/13 07:05:06;;;;;;;49.97;24.97;;;;;;;18.26;100.00;100777.22;5088059;28;20282;-54
2021/11/13 07:07:33;;;;;;;58.83;25.40;;;;;;;18.51;100.00;100781.34;5055261;28;20041;-52
2021/11/13 07:10:05;;;;;;;59.33;23.93;;;;;;;18.15;100.00;100787.88;5055013;28;20270;-54
2021/11/13 07:12:30;;;;;;;53.03;23.40;;;;;;;18.00;100.00;100796.53;5055400;28;20722;-51
2021/11/13 07:14:56;;;;;;;48.03;22.15;;;;;;;18.23;100.00;100799.38;5037871;28;20270;-51
2021/11/13 07:17:22;;;;;;;49.08;22.92;;;;;;;18.15;100.00;100795.19;5056147;28;20025;-53
2021/11/13 07:19:47;;;;;;;53.83;23.30;;;;;;;18.11;100.00;100804.88;5056368;28;20040;-52
2021/11/13 07:22:14;;;;;;;60.20;24.88;;;;;;;18.22;100.00;100809.34;5055413;28;20048;-53
2021/11/13 07:24:40;;;;;;;;;;;;;;;18.11;100.00;100821.09;5056159;28;20413;-52
2021/11/13 07:27:06;;;;;;;50.47;23.23;;;;;;;18.09;100.00;100812.38;5055540;28;19916;-50
2021/11/13 07:29:31;;;;;;;53.33;24.52;;;;;;;18.31;100.00;100817.88;5057224;28;20274;-55
2021/11/13 07:31:57;;;;;;;55.03;26.35;;;;;;;18.39;100.00;100811.22;5057593;28;20033;-54
2021/11/13 07:34:23;;;;;;;54.58;24.95;;;;;;;18.00;100.00;100820.09;5056545;28;20044;-53
2021/11/13 07:36:48;;;;;;;58.15;25.05;;;;;;;18.02;100.00;100823.41;5057736;28;20048;-50
2021/11/13 07:39:14;;;;;;;51.22;25.00;;;;;;;18.15;100.00;100836.59;5061960;28;20305;-52
2021/11/13 07:41:40;;;;;;;52.40;24.05;;;;;;;18.59;100.00;100845.91;5059367;28;20056;-50
2021/11/13 07:44:07;;;;;;;55.63;25.13;;;;;;;18.60;100.00;100839.41;5039384;28;20049;-49
2021/11/13 07:46:34;;;;;;;49.05;23.27;;;;;;;18.46;100.00;100847.91;5054327;28;20785;-51
2021/11/13 07:49:00;;;;;;;60.03;24.20;;;;;;;18.62;100.00;100845.38;5086751;28;20036;-51
2021/11/13 07:51:25;;;;;;;58.73;25.53;;;;;;;18.19;100.00;100861.28;5054975;28;20848;-53
2021/11/13 07:53:51;;;;;;;52.87;24.03;;;;;;;17.96;100.00;100854.09;5054915;28;20052;-54
2021/11/13 07:56:17;;;;;;;52.28;25.40;;;;;;;17.86;100.00;100855.56;5053692;28;20272;-53
2021/11/13 07:58:42;;;;;;;57.72;23.60;;;;;;;17.97;100.00;100855.72;5020530;28;20175;-51
2021/11/13 08:01:08;;;;;;;54.40;23.88;;;;;;;18.07;100.00;100850.53;5053861;28;20045;-51
2021/11/13 08:03:33;;;;;;;64.32;27.70;;;;;;;17.95;100.00;100855.16;5036920;28;20465;-50
2021/11/13 08:05:59;;;;;;;66.35;28.35;;;;;;;17.98;100.00;100854.66;5053630;28;20052;-53
2021/11/13 08:08:24;;;;;;;69.03;29.50;;;;;;;18.22;100.00;100858.06;5053867;28;20045;-54
2021/11/13 08:10:50;;;;;;;63.63;28.38;;;;;;;18.12;100.00;100863.34;5053341;28;20115;-52
2021/11/13 08:13:18;;;;;;;78.43;32.17;;;;;;;17.97;100.00;100867.38;5054806;28;20059;-53
2021/11/13 08:15:44;;;;;;;67.60;29.33;;;;;;;18.32;100.00;100857.41;5054739;28;20068;-51
2021/11/13 08:18:10;;;;;;;58.17;27.27;;;;;;;18.10;100.00;100860.03;5036898;28;20309;-53
2021/11/13 08:20:38;;;;;;;57.92;27.00;;;;;;;18.28;100.00;100861.69;5053505;28;20087;-54
2021/11/13 08:23:05;;;;;;;61.60;25.73;;;;;;;18.46;100.00;100857.91;5037236;28;20127;-52
2021/11/13 08:25:31;;;;;;;62.17;27.08;;;;;;;18.82;100.00;100857.59;5055090;28;20735;-53
2021/11/13 08:27:58;;;;;;;61.67;26.40;;;;;;;19.13;100.00;100861.53;5053730;28;20417;-53
2021/11/13 08:30:28;;;;;;;61.20;27.77;;;;;;;18.93;100.00;100862.06;5053157;28;20298;-55
2021/11/13 08:32:54;;;;;;;53.73;24.67;;;;;;;18.81;100.00;100864.91;5054732;28;20473;-55
2021/11/13 08:35:20;;;;;;;56.97;25.15;;;;;;;18.72;100.00;100866.38;5053186;28;20282;-51
2021/11/13 08:37:46;;;;;;;57.40;25.67;;;;;;;18.66;100.00;100868.19;5052637;28;20097;-53
2021/11/13 08:40:12;;;;;;;;;;;;;;;18.80;100.00;100862.44;5037963;28;20045;-54
2021/11/13 08:42:38;;;;;;;67.87;27.00;;;;;;;18.89;100.00;100866.34;5054071;28;19917;-54
2021/11/13 08:45:07;;;;;;;55.83;24.30;;;;;;;18.58;100.00;100865.91;5054219;28;20040;-54
2021/11/13 08:47:37;;;;;;;66.47;25.80;;;;;;;18.74;100.00;100869.66;5052621;28;20041;-54
2021/11/13 08:50:07;;;;;;;59.33;23.93;;;;;;;18.20;100.00;100876.44;5052756;28;20696;-52
2021/11/13 08:52:33;;;;;;;53.87;22.30;;;;;;;18.55;100.00;100871.84;5053969;28;20420;-54
2021/11/13 08:54:59;;;;;;;60.63;22.83;;;;;;;18.99;100.00;100882.78;5054002;28;20274;-54
2021/11/13 08:57:25;;;;;;;49.22;21.05;;;;;;;18.99;100.00;100881.94;5053208;28;20358;-53
2021/11/13 08:59:51;;;;;;;45.72;19.45;;;;;;;19.08;100.00;100890.47;5053877;28;20143;-53
2021/11/13 09:02:21;;;;;;;40.30;18.75;;;;;;;19.34;100.00;100887.00;5053833;28;20053;-54
2021/11/13 09:04:49;;;;;;;42.53;19.37;;;;;;;19.13;100.00;100893.22;5036090;28;20047;-52
2021/11/13 09:07:16;;;;;;;44.97;18.70;;;;;;;18.78;100.00;100877.03;5053502;28;20840;-52
2021/11/13 09:09:44;;;;;;;48.23;18.80;;;;;;;18.65;100.00;100885.50;5053949;28;20274;-54
2021/11/13 09:12:15;;;;;;;43.80;18.57;;;;;;;18.71;100.00;100892.66;5053766;28;20298;-55
2021/11/13 09:14:41;;;;;;;43.07;18.87;;;;;;;18.98;100.00;100889.28;5053770;28;20361;-51
2021/11/13 09:17:07;;;;;;;37.00;16.13;;;;;;;18.92;100.00;100893.75;5053745;28;20593;-52
2021/11/13 09:19:33;;;;;;;42.88;15.82;;;;;;;18.98;100.00;100891.97;5069158;28;20106;-54
2021/11/13 09:21:59;;;;;;;56.00;17.65;;;;;;;18.96;100.00;100888.66;5053414;28;20110;-52
2021/11/13 09:24:24;;;;;;;35.70;14.95;;;;;;;19.18;100.00;100898.75;5053365;28;20127;-53
2021/11/13 09:26:50;;;;;;;35.93;15.93;;;;;;;19.43;100.00;100898.22;5054016;28;20037;-54
2021/11/13 09:29:16;;;;;;;35.28;15.77;;;;;;;19.33;100.00;100919.78;5053473;28;20324;-55
2021/11/13 09:31:43;;;;;;;32.63;14.80;;;;;;;18.95;100.00;100914.13;5053127;28;20132;-53
2021/11/13 09:34:11;;;;;;;34.73;14.47;;;;;;;18.78;100.00;100922.25;5051625;28;20040;-55
2021/11/13 09:36:38;;;;;;;30.53;12.90;;;;;;;19.12;100.00;100921.41;5052972;28;20591;-55
2021/11/13 09:39:04;;;;;;;39.22;13.65;;;;;;;19.58;100.00;100924.69;5053520;28;20380;-54
2021/11/13 09:41:30;;;;;;;;;;;;;;;19.63;100.00;100923.94;5053767;28;20037;-52
2021/11/13 09:43:56;;;;;;;28.33;12.53;;;;;;;19.97;100.00;100933.81;5085508;28;20368;-54
2021/11/13 09:46:22;;;;;;;25.85;11.80;;;;;;;19.64;100.00;100922.84;5052682;28;20033;-53
2021/11/13 09:48:54;;;;;;;27.63;11.85;;;;;;;20.43;100.00;100933.41;5052783;28;20092;-52
2021/11/13 09:51:21;;;;;;;27.80;12.03;;;;;;;20.22;100.00;100935.13;5052988;28;20094;-51
2021/11/13 09:53:47;;;;;;;26.97;10.87;;;;;;;20.49;100.00;100946.75;5052128;28;20253;-53
2021/11/13 09:56:14;;;;;;;31.35;11.48;;;;;;;20.71;100.00;100943.09;5053130;28;20320;-55
2021/11/13 09:58:40;;;;;;;33.03;11.52;;;;;;;20.64;100.00;100942.50;5051527;28;20065;-55
2021/11/13 10:01:06;;;;;;;;;;;;;;;20.56;100.00;100957.41;5035690;28;20469;-55
2021/11/13 10:03:33;;;;;;;23.70;10.77;;;;;;;20.60;100.00;100953.06;5051963;28;19912;-58
2021/11/13 10:06:03;;;;;;;25.30;10.93;;;;;;;20.54;100.00;100956.84;5068560;28;20515;-52
2021/11/13 10:08:29;;;;;;;17.00;9.53;;;;;;;20.13;100.00;100953.75;5053754;28;20285;-54
2021/11/13 10:11:08;;;;;;;25.02;11.40;;;;;;;20.29;100.00;100962.88;5051862;28;20765;-52
2021/11/13 10:13:42;;;;;;;18.27;10.10;;;;;;;20.68;100.00;100957.22;5052970;28;20037;-52
2021/11/13 10:16:11;;;;;;;20.07;10.37;;;;;;;20.45;100.00;100956.50;5052305;28;20254;-55
2021/11/13 10:18:42;;;;;;;22.53;10.67;;;;;;;20.31;100.00;100960.75;5052947;28;20285;-54
2021/11/13 10:21:15;;;;;;;23.03;10.80;;;;;;;20.73;100.00;100970.03;5052509;28;20266;-54
2021/11/13 10:23:57;;;;;;;19.10;10.53;;;;;;;20.73;100.00;100973.53;5053361;28;20270;-55
2021/11/13 10:26:38;;;;;;;24.70;10.23;;;;;;;20.80;100.00;100969.84;5053446;28;20349;-53
2021/11/13 10:29:07;;;;;;;23.47;10.00;;;;;;;21.01;100.00;100963.47;5052844;28;20273;-53
2021/11/13 10:31:39;;;;;;;24.33;10.43;;;;;;;20.97;100.00;100966.94;5053759;28;20289;-53
2021/11/13 10:34:17;;;;;;;26.67;10.87;;;;;;;20.86;100.00;100975.03;5057991;28;20266;-53
2021/11/13 10:36:47;;;;;;;21.47;9.90;;;;;;;21.17;100.00;100963.53;5057765;28;20266;-54
2021/11/13 10:39:15;;;;;;;25.53;11.00;;;;;;;21.07;100.00;100953.41;5055301;28;20273;-53
2021/11/13 10:41:46;;;;;;;29.13;11.50;;;;;;;21.54;100.00;100968.06;5056146;28;20290;-51
2021/11/13 10:44:14;;;;;;;16.70;9.07;;;;;;;21.13;100.00;100965.97;5057227;28;20269;-52
2021/11/13 10:46:43;;;;;;;24.90;9.60;;;;;;;20.90;100.00;100965.28;5056654;28;20270;-53
2021/11/13 10:49:09;;;;;;;22.10;10.57;;;;;;;22.74;100.00;100961.72;5056554;28;20322;-53
2021/11/13 10:51:37;;;;;;;15.68;9.65;;;;;;;22.87;100.00;100967.69;5056144;28;20282;-50
2021/11/13 10:54:14;;;;;;;19.67;9.17;;;;;;;22.57;100.00;100966.63;5055818;28;20033;-56
2021/11/13 10:56:46;;;;;;;18.63;8.77;;;;;;;22.30;100.00;100970.41;5056536;28;20063;-54
2021/11/13 10:59:12;;;;;;;17.00;8.40;;;;;;;22.15;100.00;100968.50;5056149;28;20111;-53
2021/11/13 11:01:39;;;;;;;;;;;;;;;21.81;100.00;100975.25;5056759;28;20108;-54
2021/11/13 11:04:18;;;;;;;23.40;10.13;;;;;;;22.02;100.00;100969.84;5058972;28;19913;-54
2021/11/13 11:07:00;;;;;;;28.37;11.17;;;;;;;22.39;100.00;100973.41;5057213;28;20496;-54